sensor_id;sensor_type;location;lat;lon;timestamp;pressure;altitude;pressure_sealevel;temperature;humidity
72120;BME280;59993;53.052;18.576;2022-09-03T00:00:13;101483.06;;;10.63;96.50
72120;BME280;59993;53.052;18.576;2022-09-03T00:03:08;101489.38;;;10.44;97.46
72120;BME280;59993;53.052;18.576;2022-09-03T00:05:50;101488.63;;;10.42;97.64
72120;BME280;59993;53.052;18.576;2022-09-03T00:09:02;101477.44;;;10.37;97.84
72120;BME280;59993;53.052;18.576;2022-09-03T00:14:24;101494.50;;;10.47;98.01
72120;BME280;59993;53.052;18.576;2022-09-03T00:17:10;101482.72;;;10.37;98.40
72120;BME280;59993;53.052;18.576;2022-09-03T00:20:18;101487.06;;;10.38;98.69
72120;BME280;59993;53.052;18.576;2022-09-03T00:22:58;101481.50;;;10.27;98.98
72120;BME280;59993;53.052;18.576;2022-09-03T00:32:49;101479.06;;;10.06;99.44
72120;BME280;59993;53.052;18.576;2022-09-03T00:49:54;101476.75;;;10.00;99.72
72120;BME280;59993;53.052;18.576;2022-09-03T00:55:31;101484.75;;;9.83;99.53
72120;BME280;59993;53.052;18.576;2022-09-03T01:01:27;101469.63;;;9.85;100.00
72120;BME280;59993;53.052;18.576;2022-09-03T01:04:27;101479.56;;;9.97;100.00
72120;BME280;59993;53.052;18.576;2022-09-03T01:09:52;101480.22;;;9.85;100.00
72120;BME280;59993;53.052;18.576;2022-09-03T01:15:17;101458.78;;;9.73;100.00
72120;BME280;59993;53.052;18.576;2022-09-03T01:20:52;101474.25;;;9.81;100.00
72120;BME280;59993;53.052;18.576;2022-09-03T01:29:28;101474.09;;;10.00;100.00
72120;BME280;59993;53.052;18.576;2022-09-03T01:32:37;101471.03;;;9.92;100.00
72120;BME280;59993;53.052;18.576;2022-09-03T01:35:19;101478.16;;;9.90;100.00
72120;BME280;59993;53.052;18.576;2022-09-03T01:38:26;101465.44;;;9.81;100.00
72120;BME280;59993;53.052;18.576;2022-09-03T01:50:42;101468.97;;;9.64;100.00
72120;BME280;59993;53.052;18.576;2022-09-03T01:57:01;101468.56;;;9.71;100.00
72120;BME280;59993;53.052;18.576;2022-09-03T01:59:36;101467.88;;;9.68;100.00
72120;BME280;59993;53.052;18.576;2022-09-03T02:02:25;101456.28;;;9.70;100.00
72120;BME280;59993;53.052;18.576;2022-09-03T02:05:21;101456.13;;;9.89;100.00
72120;BME280;59993;53.052;18.576;2022-09-03T02:08:00;101460.91;;;9.83;100.00
72120;BME280;59993;53.052;18.576;2022-09-03T02:10:54;101453.63;;;9.70;100.00
72120;BME280;59993;53.052;18.576;2022-09-03T02:13:31;101439.09;;;9.77;99.65
72120;BME280;59993;53.052;18.576;2022-09-03T02:16:02;101450.50;;;9.80;99.43
72120;BME280;59993;53.052;18.576;2022-09-03T02:18:44;101449.53;;;9.81;100.00
72120;BME280;59993;53.052;18.576;2022-09-03T02:21:16;101436.63;;;9.74;100.00
72120;BME280;59993;53.052;18.576;2022-09-03T02:23:48;101457.31;;;9.84;99.58
72120;BME280;59993;53.052;18.576;2022-09-03T02:26:23;101445.13;;;9.81;99.57
72120;BME280;59993;53.052;18.576;2022-09-03T02:28:50;101448.78;;;9.78;99.88
72120;BME280;59993;53.052;18.576;2022-09-03T02:31:17;101441.91;;;9.74;100.00
72120;BME280;59993;53.052;18.576;2022-09-03T02:33:54;101453.91;;;9.82;100.00
72120;BME280;59993;53.052;18.576;2022-09-03T02:39:17;101445.38;;;9.92;98.37
72120;BME280;59993;53.052;18.576;2022-09-03T02:44:34;101444.31;;;9.79;99.56
72120;BME280;59993;53.052;18.576;2022-09-03T02:47:04;101448.78;;;9.78;99.97
72120;BME280;59993;53.052;18.576;2022-09-03T02:49:39;101435.84;;;9.72;99.71
72120;BME280;59993;53.052;18.576;2022-09-03T02:52:09;101464.88;;;9.40;100.00
72120;BME280;59993;53.052;18.576;2022-09-03T02:54:43;101454.63;;;9.34;100.00
72120;BME280;59993;53.052;18.576;2022-09-03T02:57:19;101449.22;;;9.53;99.89
72120;BME280;59993;53.052;18.576;2022-09-03T03:02:51;101455.88;;;9.45;100.00
72120;BME280;59993;53.052;18.576;2022-09-03T03:05:51;101458.34;;;9.48;99.71
72120;BME280;59993;53.052;18.576;2022-09-03T03:08:33;101463.19;;;9.22;100.00
72120;BME280;59993;53.052;18.576;2022-09-03T03:11:02;101470.50;;;9.34;100.00
72120;BME280;59993;53.052;18.576;2022-09-03T03:13:33;101468.16;;;9.28;100.00
72120;BME280;59993;53.052;18.576;2022-09-03T03:16:03;101471.59;;;9.13;100.00
72120;BME280;59993;53.052;18.576;2022-09-03T03:18:31;101469.56;;;9.00;100.00
72120;BME280;59993;53.052;18.576;2022-09-03T03:21:25;101461.47;;;9.03;100.00
72120;BME280;59993;53.052;18.576;2022-09-03T03:23:57;101457.19;;;9.01;100.00
72120;BME280;59993;53.052;18.576;2022-09-03T03:26:27;101458.13;;;8.82;100.00
72120;BME280;59993;53.052;18.576;2022-09-03T03:29:02;101464.25;;;8.83;100.00
72120;BME280;59993;53.052;18.576;2022-09-03T03:31:47;101462.41;;;9.02;100.00
72120;BME280;59993;53.052;18.576;2022-09-03T03:34:24;101466.91;;;8.83;100.00
72120;BME280;59993;53.052;18.576;2022-09-03T03:37:03;101476.41;;;8.87;100.00
72120;BME280;59993;53.052;18.576;2022-09-03T03:39:41;101464.72;;;8.74;100.00
72120;BME280;59993;53.052;18.576;2022-09-03T03:42:07;101468.09;;;8.95;100.00
72120;BME280;59993;53.052;18.576;2022-09-03T03:44:38;101474.53;;;8.89;100.00
72120;BME280;59993;53.052;18.576;2022-09-03T03:47:06;101466.75;;;8.86;100.00
72120;BME280;59993;53.052;18.576;2022-09-03T03:49:35;101471.13;;;8.68;100.00
72120;BME280;59993;53.052;18.576;2022-09-03T03:52:00;101458.75;;;8.51;100.00
72120;BME280;59993;53.052;18.576;2022-09-03T03:54:32;101462.97;;;8.73;100.00
72120;BME280;59993;53.052;18.576;2022-09-03T03:57:00;101470.84;;;8.74;100.00
72120;BME280;59993;53.052;18.576;2022-09-03T03:59:26;101463.28;;;8.66;100.00
72120;BME280;59993;53.052;18.576;2022-09-03T04:02:07;101466.72;;;8.68;100.00
72120;BME280;59993;53.052;18.576;2022-09-03T04:04:36;101471.50;;;8.60;100.00
72120;BME280;59993;53.052;18.576;2022-09-03T04:07:07;101469.38;;;8.68;100.00
72120;BME280;59993;53.052;18.576;2022-09-03T04:09:33;101477.25;;;8.51;100.00
72120;BME280;59993;53.052;18.576;2022-09-03T04:12:01;101467.66;;;8.29;100.00
72120;BME280;59993;53.052;18.576;2022-09-03T04:14:33;101465.09;;;8.28;100.00
72120;BME280;59993;53.052;18.576;2022-09-03T04:17:02;101464.59;;;8.39;100.00
72120;BME280;59993;53.052;18.576;2022-09-03T04:19:28;101466.25;;;8.41;100.00
72120;BME280;59993;53.052;18.576;2022-09-03T04:21:57;101472.44;;;8.59;100.00
72120;BME280;59993;53.052;18.576;2022-09-03T04:24:26;101472.22;;;8.64;100.00
72120;BME280;59993;53.052;18.576;2022-09-03T04:26:52;101473.47;;;8.57;100.00
72120;BME280;59993;53.052;18.576;2022-09-03T04:29:18;101474.94;;;8.62;100.00
72120;BME280;59993;53.052;18.576;2022-09-03T04:31:49;101482.59;;;8.68;100.00
72120;BME280;59993;53.052;18.576;2022-09-03T04:34:36;101475.22;;;8.75;100.00
72120;BME280;59993;53.052;18.576;2022-09-03T04:37:25;101471.88;;;8.71;100.00
72120;BME280;59993;53.052;18.576;2022-09-03T04:39:57;101471.28;;;8.65;100.00
72120;BME280;59993;53.052;18.576;2022-09-03T04:42:29;101475.72;;;8.64;100.00
72120;BME280;59993;53.052;18.576;2022-09-03T04:45:13;101465.00;;;8.67;100.00
72120;BME280;59993;53.052;18.576;2022-09-03T04:48:18;101464.19;;;8.84;100.00
72120;BME280;59993;53.052;18.576;2022-09-03T04:51:01;101475.69;;;8.83;100.00
72120;BME280;59993;53.052;18.576;2022-09-03T04:53:58;101464.63;;;8.93;100.00
72120;BME280;59993;53.052;18.576;2022-09-03T04:56:41;101469.50;;;9.02;100.00
72120;BME280;59993;53.052;18.576;2022-09-03T05:11:38;101463.00;;;9.60;99.65
72120;BME280;59993;53.052;18.576;2022-09-03T05:14:03;101476.75;;;9.67;100.00
72120;BME280;59993;53.052;18.576;2022-09-03T05:16:30;101476.81;;;9.83;99.84
72120;BME280;59993;53.052;18.576;2022-09-03T05:18:57;101474.00;;;9.86;99.33
72120;BME280;59993;53.052;18.576;2022-09-03T05:21:24;101477.88;;;9.96;99.17
72120;BME280;59993;53.052;18.576;2022-09-03T05:23:51;101480.28;;;10.17;97.87
72120;BME280;59993;53.052;18.576;2022-09-03T05:26:21;101489.28;;;10.30;96.83
72120;BME280;59993;53.052;18.576;2022-09-03T05:28:47;101485.06;;;10.26;97.23
72120;BME280;59993;53.052;18.576;2022-09-03T05:31:21;101489.53;;;10.41;96.23
72120;BME280;59993;53.052;18.576;2022-09-03T05:34:08;101489.28;;;10.46;98.01
72120;BME280;59993;53.052;18.576;2022-09-03T05:36:36;101479.28;;;10.67;95.45
72120;BME280;59993;53.052;18.576;2022-09-03T05:39:07;101474.06;;;10.81;95.82
72120;BME280;59993;53.052;18.576;2022-09-03T05:41:43;101484.66;;;10.81;95.09
72120;BME280;59993;53.052;18.576;2022-09-03T05:44:17;101483.03;;;10.95;94.32
72120;BME280;59993;53.052;18.576;2022-09-03T05:46:45;101490.09;;;11.25;91.71
72120;BME280;59993;53.052;18.576;2022-09-03T05:49:21;101479.84;;;11.18;92.42
72120;BME280;59993;53.052;18.576;2022-09-03T05:52:07;101480.09;;;11.44;91.68
72120;BME280;59993;53.052;18.576;2022-09-03T05:58:16;101489.59;;;11.63;90.88
72120;BME280;59993;53.052;18.576;2022-09-03T06:08:42;101503.88;;;11.90;88.91
72120;BME280;59993;53.052;18.576;2022-09-03T06:11:09;101501.72;;;11.97;89.05
72120;BME280;59993;53.052;18.576;2022-09-03T06:13:35;101487.47;;;12.13;89.34
72120;BME280;59993;53.052;18.576;2022-09-03T06:16:03;101501.34;;;12.59;84.87
72120;BME280;59993;53.052;18.576;2022-09-03T06:18:34;101488.97;;;12.58;84.99
72120;BME280;59993;53.052;18.576;2022-09-03T06:21:05;101495.22;;;12.72;83.89
72120;BME280;59993;53.052;18.576;2022-09-03T06:23:32;101496.94;;;13.13;80.72
72120;BME280;59993;53.052;18.576;2022-09-03T06:26:05;101494.50;;;13.10;80.62
72120;BME280;59993;53.052;18.576;2022-09-03T06:28:35;101496.69;;;13.30;80.64
72120;BME280;59993;53.052;18.576;2022-09-03T06:31:03;101496.50;;;13.33;77.32
72120;BME280;59993;53.052;18.576;2022-09-03T06:33:30;101495.44;;;13.49;77.05
72120;BME280;59993;53.052;18.576;2022-09-03T06:35:57;101499.41;;;13.56;76.84
72120;BME280;59993;53.052;18.576;2022-09-03T06:38:28;101496.41;;;13.74;74.27
72120;BME280;59993;53.052;18.576;2022-09-03T06:40:57;101495.75;;;13.83;75.80
72120;BME280;59993;53.052;18.576;2022-09-03T06:43:26;101495.00;;;13.94;74.67
72120;BME280;59993;53.052;18.576;2022-09-03T06:45:58;101503.22;;;14.03;72.58
72120;BME280;59993;53.052;18.576;2022-09-03T07:30:11;101499.81;;;15.24;72.09
72120;BME280;59993;53.052;18.576;2022-09-03T07:32:37;101506.41;;;15.42;69.03
72120;BME280;59993;53.052;18.576;2022-09-03T07:35:04;101499.84;;;15.00;73.57
72120;BME280;59993;53.052;18.576;2022-09-03T07:37:31;101504.53;;;15.20;71.83
72120;BME280;59993;53.052;18.576;2022-09-03T07:39:57;101500.94;;;14.73;71.98
72120;BME280;59993;53.052;18.576;2022-09-03T07:42:22;101501.22;;;14.81;70.96
72120;BME280;59993;53.052;18.576;2022-09-03T07:44:48;101504.06;;;14.91;73.26
72120;BME280;59993;53.052;18.576;2022-09-03T07:47:13;101495.59;;;15.33;71.21
72120;BME280;59993;53.052;18.576;2022-09-03T07:49:39;101502.03;;;16.11;67.04
72120;BME280;59993;53.052;18.576;2022-09-03T07:52:04;101501.19;;;16.10;67.67
72120;BME280;59993;53.052;18.576;2022-09-03T07:54:31;101505.44;;;16.02;66.71
72120;BME280;59993;53.052;18.576;2022-09-03T07:56:57;101494.84;;;15.77;68.47
72120;BME280;59993;53.052;18.576;2022-09-03T07:59:23;101498.38;;;16.12;66.44
72120;BME280;59993;53.052;18.576;2022-09-03T08:01:48;101493.75;;;15.80;69.57
72120;BME280;59993;53.052;18.576;2022-09-03T08:04:15;101502.00;;;16.33;66.44
72120;BME280;59993;53.052;18.576;2022-09-03T08:06:40;101497.72;;;15.63;69.45
72120;BME280;59993;53.052;18.576;2022-09-03T08:09:08;101508.59;;;16.73;64.67
72120;BME280;59993;53.052;18.576;2022-09-03T08:11:37;101503.03;;;16.65;65.00
72120;BME280;59993;53.052;18.576;2022-09-03T08:14:08;101510.41;;;16.40;66.10
72120;BME280;59993;53.052;18.576;2022-09-03T08:16:44;101512.25;;;16.17;66.42
72120;BME280;59993;53.052;18.576;2022-09-03T08:19:14;101509.25;;;16.65;64.01
72120;BME280;59993;53.052;18.576;2022-09-03T08:21:40;101512.97;;;16.85;64.92
72120;BME280;59993;53.052;18.576;2022-09-03T08:24:06;101510.38;;;16.63;64.37
72120;BME280;59993;53.052;18.576;2022-09-03T08:26:38;101510.84;;;17.00;63.12
72120;BME280;59993;53.052;18.576;2022-09-03T08:29:05;101505.97;;;16.62;65.45
72120;BME280;59993;53.052;18.576;2022-09-03T08:31:31;101510.84;;;17.00;62.63
72120;BME280;59993;53.052;18.576;2022-09-03T08:33:58;101509.06;;;16.90;63.41
72120;BME280;59993;53.052;18.576;2022-09-03T08:36:34;101500.56;;;17.17;62.74
72120;BME280;59993;53.052;18.576;2022-09-03T08:39:02;101499.25;;;17.32;62.00
